createdAt,value
2017-11-19T00:02:12.812Z,75.72
2017-11-19T00:04:45.525Z,75.25
2017-11-19T00:07:14.546Z,75.29
2017-11-19T00:09:48.310Z,74.92
2017-11-19T00:12:17.325Z,75.34
2017-11-19T00:14:46.456Z,75.77
2017-11-19T00:17:15.614Z,74.63
2017-11-19T00:19:44.713Z,74.79
2017-11-19T00:22:13.816Z,74.28
2017-11-19T00:24:47.085Z,74.17
2017-11-19T00:27:16.160Z,74.87
2017-11-19T00:29:45.231Z,74.67
2017-11-19T00:32:16.288Z,74.51
2017-11-19T00:37:20.567Z,74.43
2017-11-19T00:39:56.809Z,74.54
2017-11-19T00:42:25.860Z,75.34
2017-11-19T00:44:54.950Z,75.46
2017-11-19T00:47:24.032Z,75.66
2017-11-19T00:49:53.906Z,76.18
2017-11-19T00:52:23.120Z,76.13
2017-11-19T00:54:53.106Z,76.43
2017-11-19T00:57:22.144Z,76.27
2017-11-19T00:59:52.925Z,76.41
2017-11-19T01:04:59.103Z,77.12
2017-11-19T01:07:28.136Z,77.92
2017-11-19T01:09:57.199Z,78.28
2017-11-19T01:12:26.456Z,78.77
2017-11-19T01:14:57.689Z,79.33
2017-11-19T01:17:26.716Z,80.95
2017-11-19T01:19:55.768Z,81.21
2017-11-19T01:22:30.697Z,81.63
2017-11-19T01:25:01.726Z,82.15
2017-11-19T01:27:31.395Z,83.11
2017-11-19T01:30:01.394Z,84.01
2017-11-19T01:32:30.453Z,85.40
2017-11-19T01:34:59.527Z,85.86
2017-11-19T01:37:28.563Z,86.26
2017-11-19T01:40:03.195Z,86.93
2017-11-19T01:42:32.240Z,87.63
2017-11-19T01:45:01.263Z,88.66
2017-11-19T01:47:30.327Z,88.62
2017-11-19T01:52:37.606Z,90.13
2017-11-19T01:55:06.649Z,90.51
2017-11-19T01:57:36.680Z,90.52
2017-11-19T02:00:05.728Z,90.97
2017-11-19T02:02:36.764Z,90.61
2017-11-19T02:07:45.993Z,91.31
2017-11-19T02:10:15.026Z,92.11
2017-11-19T02:12:47.668Z,92.61
2017-11-19T02:15:16.722Z,92.78
2017-11-19T02:17:50.383Z,93.46
2017-11-19T02:20:19.432Z,93.11
2017-11-19T02:22:56.355Z,93.82
2017-11-19T02:25:31.160Z,93.71
2017-11-19T02:28:13.191Z,94.36
2017-11-19T02:33:19.415Z,95.04
2017-11-19T02:35:52.141Z,95.21
2017-11-19T02:38:21.213Z,95.34
2017-11-19T02:40:50.240Z,95.68
2017-11-19T02:43:19.312Z,96.46
2017-11-19T02:45:48.365Z,96.10
2017-11-19T02:48:17.401Z,96.33
2017-11-19T02:53:24.287Z,96.60
2017-11-19T02:55:55.315Z,96.71
2017-11-19T02:58:24.338Z,96.78
2017-11-19T03:00:53.395Z,96.81
2017-11-19T03:03:22.435Z,97.05
2017-11-19T03:05:53.438Z,97.25
2017-11-19T03:08:22.518Z,97.12
2017-11-19T03:10:51.562Z,97.58
2017-11-19T03:13:21.528Z,97.59
2017-11-19T03:15:50.576Z,97.82
2017-11-19T03:18:19.631Z,97.90
2017-11-19T03:20:52.625Z,97.85
2017-11-19T03:23:21.661Z,97.96
2017-11-19T03:26:08.501Z,98.34
2017-11-19T03:28:37.576Z,98.31
2017-11-19T03:31:10.359Z,98.39
2017-11-19T03:33:41.345Z,98.31
2017-11-19T03:36:10.396Z,97.88
2017-11-19T03:41:14.650Z,98.72
2017-11-19T03:43:45.629Z,98.63
2017-11-19T03:46:14.711Z,98.57
2017-11-19T03:48:45.678Z,98.47
2017-11-19T03:51:14.729Z,98.25
2017-11-19T03:53:43.975Z,98.46
2017-11-19T03:56:13.020Z,98.29
2017-11-19T03:58:45.407Z,98.13
2017-11-19T04:01:14.463Z,98.26
2017-11-19T04:03:44.509Z,98.55
2017-11-19T04:06:13.539Z,98.52
2017-11-19T04:08:42.576Z,98.61
2017-11-19T04:11:11.620Z,98.70
2017-11-19T04:13:40.664Z,98.57
2017-11-19T04:16:15.395Z,98.36
2017-11-19T04:18:45.326Z,98.22
2017-11-19T04:21:37.847Z,98.61
2017-11-19T04:24:06.895Z,98.42
2017-11-19T04:26:35.929Z,98.46
2017-11-19T04:29:05.962Z,98.24
2017-11-19T04:34:10.229Z,98.06
2017-11-19T04:36:39.314Z,98.05
2017-11-19T04:39:08.349Z,97.31
2017-11-19T04:41:37.395Z,97.01
2017-11-19T04:44:15.707Z,97.13
2017-11-19T04:46:44.752Z,97.35
2017-11-19T04:49:14.716Z,97.52
2017-11-19T04:51:45.577Z,97.03
2017-11-19T04:54:14.626Z,96.93
2017-11-19T04:56:43.688Z,97.25
2017-11-19T04:59:12.719Z,97.05
2017-11-19T05:01:43.663Z,97.06
2017-11-19T05:04:13.727Z,97.04
2017-11-19T05:06:42.759Z,96.52
2017-11-19T05:09:11.819Z,96.83
2017-11-19T05:11:40.847Z,96.56
2017-11-19T05:14:16.992Z,96.37
2017-11-19T05:16:46.027Z,96.71
2017-11-19T05:19:15.134Z,95.98
2017-11-19T05:21:45.311Z,96.65
2017-11-19T05:24:19.305Z,96.28
2017-11-19T05:26:48.341Z,96.17
2017-11-19T05:31:52.595Z,95.90
2017-11-19T05:34:28.811Z,95.87
2017-11-19T05:36:57.843Z,96.43
2017-11-19T05:39:31.690Z,96.56
2017-11-19T05:42:00.747Z,96.73
2017-11-19T05:44:38.700Z,96.77
2017-11-19T05:49:43.874Z,97.02
2017-11-19T05:54:48.853Z,96.29
2017-11-19T05:57:17.935Z,96.29
2017-11-19T05:59:46.957Z,96.81
2017-11-19T06:02:17.967Z,96.89
2017-11-19T06:04:46.983Z,97.40
2017-11-19T06:09:53.195Z,97.49
2017-11-19T06:12:22.254Z,98.14
2017-11-19T06:14:51.284Z,98.43
2017-11-19T06:20:08.190Z,98.71
2017-11-19T06:22:39.257Z,98.96
2017-11-19T06:25:11.926Z,98.99
2017-11-19T06:27:40.958Z,99.03
2017-11-19T06:32:45.778Z,98.97
2017-11-19T06:35:20.598Z,98.76
2017-11-19T06:37:49.632Z,98.67
2017-11-19T06:40:18.670Z,98.65
2017-11-19T06:42:47.699Z,98.45
2017-11-19T06:45:16.723Z,98.21
2017-11-19T06:47:45.768Z,98.16
2017-11-19T06:50:14.810Z,98.11
2017-11-19T06:52:43.845Z,98.23
2017-11-19T06:55:12.960Z,98.42
2017-11-19T06:57:41.980Z,98.31
2017-11-19T07:00:11.982Z,98.11
2017-11-19T07:02:41.021Z,98.20
2017-11-19T07:05:13.579Z,97.96
2017-11-19T07:07:42.631Z,98.23
2017-11-19T07:10:12.675Z,97.97
2017-11-19T07:12:41.708Z,98.02
2017-11-19T07:15:12.744Z,98.23
2017-11-19T07:17:41.869Z,97.82
2017-11-19T07:20:16.830Z,97.72
2017-11-19T07:22:45.883Z,97.91
2017-11-19T07:25:15.884Z,97.66
2017-11-19T07:27:45.317Z,97.85
2017-11-19T07:32:52.542Z,97.48
2017-11-19T07:35:21.576Z,97.23
2017-11-19T07:37:50.658Z,97.42
2017-11-19T07:40:21.371Z,97.15
2017-11-19T07:45:32.715Z,96.99
2017-11-19T07:48:01.744Z,97.26
2017-11-19T07:50:30.798Z,96.97
2017-11-19T07:52:59.850Z,96.82
2017-11-19T07:55:32.226Z,96.89
2017-11-19T07:58:01.260Z,96.78
2017-11-19T08:00:37.978Z,97.37
2017-11-19T08:05:42.421Z,96.55
2017-11-19T08:08:11.429Z,96.02
2017-11-19T08:10:40.452Z,96.20
2017-11-19T08:13:14.616Z,95.76
2017-11-19T08:15:43.653Z,95.37
2017-11-19T08:18:30.297Z,95.87
2017-11-19T08:20:59.341Z,95.23
2017-11-19T08:23:29.457Z,95.77
2017-11-19T08:25:58.539Z,96.23
2017-11-19T08:28:33.285Z,96.31
2017-11-19T08:31:03.279Z,96.83
2017-11-19T08:36:07.589Z,96.60
2017-11-19T08:38:37.540Z,96.91
2017-11-19T08:41:06.567Z,97.24
2017-11-19T08:46:21.838Z,97.27
2017-11-19T08:48:50.882Z,97.50
2017-11-19T08:51:23.516Z,97.11
2017-11-19T08:53:52.611Z,97.23
2017-11-19T08:56:29.385Z,97.08
2017-11-19T08:58:58.524Z,97.38
2017-11-19T09:01:28.519Z,97.49
2017-11-19T09:03:57.583Z,97.83
2017-11-19T09:06:27.604Z,97.68
2017-11-19T09:08:56.660Z,97.76
2017-11-19T09:11:26.674Z,97.86
2017-11-19T09:13:55.703Z,97.86
2017-11-19T09:16:24.754Z,98.11
2017-11-19T09:18:53.965Z,98.39
2017-11-19T09:21:22.999Z,98.43
2017-11-19T09:23:52.041Z,98.09
2017-11-19T09:26:21.073Z,97.86
2017-11-19T09:28:50.137Z,97.73
2017-11-19T09:31:21.163Z,97.65
2017-11-19T09:33:51.105Z,97.28
2017-11-19T09:38:57.393Z,97.22
2017-11-19T09:41:30.176Z,97.33
2017-11-19T09:43:59.239Z,97.61
2017-11-19T09:46:28.270Z,97.75
2017-11-19T09:48:57.327Z,97.46
2017-11-19T09:51:26.364Z,97.71
2017-11-19T09:53:55.455Z,97.39
2017-11-19T09:56:24.482Z,96.72
2017-11-19T09:58:53.538Z,97.24
2017-11-19T10:03:57.872Z,96.33
2017-11-19T10:06:41.205Z,96.18
2017-11-19T10:09:10.336Z,96.63
2017-11-19T10:11:40.332Z,96.06
2017-11-19T10:16:49.388Z,96.43
2017-11-19T10:21:59.400Z,96.44
2017-11-19T10:30:14.169Z,96.07
2017-11-19T10:32:44.807Z,95.81
2017-11-19T10:35:27.539Z,96.27
2017-11-19T10:40:39.518Z,94.94
2017-11-19T10:43:28.223Z,95.38
2017-11-19T10:46:12.207Z,95.00
2017-11-19T10:48:41.292Z,94.95
2017-11-19T10:51:10.439Z,94.51
2017-11-19T10:53:39.549Z,94.10
2017-11-19T10:56:12.184Z,93.68
2017-11-19T10:58:41.255Z,94.67
2017-11-19T11:01:23.044Z,94.58
2017-11-19T11:06:33.086Z,93.62
2017-11-19T11:09:02.162Z,93.97
2017-11-19T11:11:36.809Z,93.48
2017-11-19T11:14:09.542Z,91.63
2017-11-19T11:16:38.592Z,87.36
2017-11-19T11:19:07.725Z,84.75
2017-11-19T11:21:36.770Z,80.03
2017-11-19T11:24:10.800Z,80.03
2017-11-19T11:26:39.858Z,82.22
2017-11-19T11:29:21.376Z,80.94
2017-11-19T11:31:52.357Z,79.72
2017-11-19T11:34:21.454Z,80.93
2017-11-19T11:36:50.493Z,83.80
2017-11-19T11:39:19.612Z,83.78
2017-11-19T11:44:23.827Z,85.23
2017-11-19T11:46:52.855Z,85.82
2017-11-19T11:49:22.999Z,87.14
2017-11-19T11:51:52.027Z,88.17
2017-11-19T11:54:21.064Z,86.14
2017-11-19T11:56:50.127Z,86.12
2017-11-19T11:59:19.169Z,85.59
2017-11-19T12:01:48.224Z,84.47
2017-11-19T12:04:17.303Z,83.63
2017-11-19T12:06:46.336Z,81.97
2017-11-19T12:09:15.420Z,83.02
2017-11-19T12:11:45.387Z,80.25
2017-11-19T12:14:24.384Z,81.35
2017-11-19T12:16:53.416Z,80.01
2017-11-19T12:19:44.881Z,80.28
2017-11-19T12:22:37.836Z,81.73
2017-11-19T12:25:17.983Z,82.68
2017-11-19T12:27:47.189Z,82.79
2017-11-19T12:30:16.218Z,83.00
2017-11-19T12:32:45.267Z,84.54
2017-11-19T12:35:14.333Z,84.67
2017-11-19T12:37:43.377Z,86.18
2017-11-19T12:40:50.708Z,87.09
2017-11-19T12:45:54.985Z,87.87
2017-11-19T12:48:27.749Z,87.71
2017-11-19T12:50:56.830Z,87.83
2017-11-19T12:53:25.857Z,88.94
2017-11-19T12:55:54.903Z,88.00
2017-11-19T12:58:23.975Z,88.69
2017-11-19T13:00:53.005Z,87.91
2017-11-19T13:03:22.064Z,87.31
2017-11-19T13:05:51.084Z,88.37
2017-11-19T13:08:30.520Z,88.27
2017-11-19T13:10:59.588Z,87.98
2017-11-19T13:13:45.835Z,86.60
2017-11-19T13:16:14.881Z,86.35
2017-11-19T13:18:44.862Z,85.62
2017-11-19T13:21:13.895Z,81.91
2017-11-19T13:23:45.599Z,81.81
2017-11-19T13:26:16.586Z,76.81
2017-11-19T13:28:45.617Z,70.06
2017-11-19T13:31:14.651Z,67.41
2017-11-19T13:33:43.684Z,67.55
2017-11-19T13:36:17.204Z,67.83
2017-11-19T13:39:12.811Z,71.88
2017-11-19T13:41:41.840Z,78.48
2017-11-19T13:44:10.935Z,81.80
2017-11-19T13:49:15.158Z,76.93
2017-11-19T13:51:46.152Z,78.16
2017-11-19T13:54:15.199Z,80.61
2017-11-19T13:57:12.346Z,81.95
2017-11-19T13:59:45.100Z,83.15
2017-11-19T14:02:14.136Z,84.11
2017-11-19T14:04:53.331Z,84.60
2017-11-19T14:07:22.596Z,82.99
2017-11-19T14:09:51.628Z,81.33
2017-11-19T14:12:20.671Z,78.27
2017-11-19T14:14:49.715Z,77.40
2017-11-19T14:17:18.761Z,75.54
2017-11-19T14:19:51.574Z,76.46
2017-11-19T14:22:20.614Z,78.60
2017-11-19T14:24:50.610Z,78.07
2017-11-19T14:27:19.671Z,78.24
2017-11-19T14:29:58.420Z,79.44
2017-11-19T14:32:27.487Z,81.64
2017-11-19T14:35:04.604Z,81.49
2017-11-19T14:37:41.389Z,80.98
2017-11-19T14:40:10.465Z,82.21
2017-11-19T14:42:39.502Z,83.53
2017-11-19T14:45:08.542Z,82.93
2017-11-19T14:47:38.578Z,83.63
2017-11-19T14:52:48.187Z,83.95
2017-11-19T14:55:17.300Z,84.25
2017-11-19T14:57:46.366Z,83.63
2017-11-19T15:00:15.462Z,83.34
2017-11-19T15:02:45.468Z,83.27
2017-11-19T15:05:14.507Z,82.96
2017-11-19T15:07:46.764Z,83.41
2017-11-19T15:10:15.843Z,83.95
2017-11-19T15:15:20.122Z,84.34
2017-11-19T15:20:27.371Z,84.85
2017-11-19T15:25:42.794Z,85.46
2017-11-19T15:28:12.972Z,85.87
2017-11-19T15:30:46.447Z,85.66
2017-11-19T15:33:15.557Z,86.51
2017-11-19T15:35:47.691Z,86.36
2017-11-19T15:38:16.727Z,86.38
2017-11-19T15:43:32.963Z,85.96
2017-11-19T15:46:02.066Z,85.54
2017-11-19T15:48:31.113Z,85.76
2017-11-19T15:51:03.923Z,85.40
2017-11-19T15:53:32.948Z,85.46
2017-11-19T15:58:43.310Z,85.46
2017-11-19T16:01:12.371Z,86.24
2017-11-19T16:06:16.629Z,85.72
2017-11-19T16:08:49.577Z,86.20
2017-11-19T16:11:18.612Z,86.51
2017-11-19T16:13:51.461Z,86.14
2017-11-19T16:16:20.545Z,86.43
2017-11-19T16:18:58.175Z,86.80
2017-11-19T16:21:27.217Z,86.83
2017-11-19T16:23:56.409Z,86.74
2017-11-19T16:26:25.491Z,86.94
2017-11-19T16:28:54.657Z,86.77
2017-11-19T16:31:23.731Z,86.29
2017-11-19T16:33:52.778Z,86.84
2017-11-19T16:36:21.789Z,86.34
2017-11-19T16:44:15.751Z,85.82
2017-11-19T16:46:48.731Z,85.12
2017-11-19T16:49:17.897Z,85.45
2017-11-19T16:51:46.944Z,85.38
2017-11-19T16:54:15.996Z,85.23
2017-11-19T16:56:45.035Z,85.43
2017-11-19T16:59:14.087Z,85.22
2017-11-19T17:01:46.740Z,85.14
2017-11-19T17:04:17.728Z,84.62
2017-11-19T17:06:46.775Z,85.08
2017-11-19T17:09:15.831Z,85.28
2017-11-19T17:11:44.875Z,85.54
2017-11-19T17:14:13.945Z,84.99
2017-11-19T17:16:42.999Z,85.37
2017-11-19T17:19:12.054Z,84.98
2017-11-19T17:21:42.161Z,85.37
2017-11-19T17:24:11.224Z,84.79
2017-11-19T17:26:40.280Z,85.14
2017-11-19T17:29:09.306Z,85.40
2017-11-19T17:31:38.366Z,85.70
2017-11-19T17:34:07.417Z,84.91
2017-11-19T17:36:40.484Z,84.73
2017-11-19T17:39:09.530Z,84.28
2017-11-19T17:41:38.571Z,84.76
2017-11-19T17:44:07.728Z,85.13
2017-11-19T17:46:36.769Z,84.75
2017-11-19T17:49:06.716Z,84.07
2017-11-19T17:51:37.774Z,83.80
2017-11-19T17:54:07.728Z,83.87
2017-11-19T18:02:07.646Z,83.36
2017-11-19T18:04:36.728Z,82.53
2017-11-19T18:07:06.690Z,82.90
2017-11-19T18:12:11.236Z,82.55
2017-11-19T18:14:40.953Z,82.50
2017-11-19T18:17:09.978Z,82.31
2017-11-19T18:19:39.972Z,82.42
2017-11-19T18:22:09.068Z,81.74
2017-11-19T18:24:38.119Z,82.75
2017-11-19T18:27:07.240Z,82.47
2017-11-19T18:29:36.316Z,82.08
2017-11-19T18:32:06.292Z,81.04
2017-11-19T18:34:37.306Z,81.34
2017-11-19T18:37:06.365Z,81.87
2017-11-19T18:39:35.424Z,82.15
2017-11-19T18:42:04.467Z,81.04
2017-11-19T18:44:34.867Z,80.74
2017-11-19T18:47:03.944Z,80.29
2017-11-19T18:52:12.500Z,80.17
2017-11-19T18:57:18.818Z,80.83
2017-11-19T18:59:48.803Z,80.42
2017-11-19T19:02:17.835Z,80.44
2017-11-19T19:04:48.840Z,80.62
2017-11-19T19:07:17.993Z,80.63
2017-11-19T19:09:47.087Z,81.30
2017-11-19T19:12:16.198Z,80.65
2017-11-19T19:14:49.127Z,80.51
2017-11-19T19:17:18.228Z,81.34
2017-11-19T19:19:52.871Z,81.65
2017-11-19T19:22:21.933Z,81.86
2017-11-19T19:24:55.335Z,81.12
2017-11-19T19:27:24.557Z,81.66
2017-11-19T19:29:55.530Z,81.58
2017-11-19T19:32:25.532Z,81.24
2017-11-19T19:34:54.559Z,81.25
2017-11-19T19:37:23.623Z,81.12
2017-11-19T19:39:54.801Z,80.40
2017-11-19T19:42:23.826Z,81.30
2017-11-19T19:44:56.045Z,80.42
2017-11-19T19:47:25.360Z,80.82
2017-11-19T19:49:54.386Z,80.59
2017-11-19T19:52:23.480Z,80.92
2017-11-19T19:54:56.518Z,80.38
2017-11-19T19:57:25.572Z,79.37
2017-11-19T19:59:54.698Z,79.73
2017-11-19T20:02:23.951Z,80.36
2017-11-19T20:07:33.292Z,80.22
2017-11-19T20:10:07.228Z,80.05
2017-11-19T20:12:40.190Z,79.40
2017-11-19T20:15:09.204Z,80.06
2017-11-19T20:20:16.409Z,80.11
2017-11-19T20:25:23.629Z,80.77
2017-11-19T20:30:31.706Z,80.06
2017-11-19T20:35:36.377Z,79.70
2017-11-19T20:38:05.418Z,79.96
2017-11-19T20:40:34.457Z,80.69
2017-11-19T20:43:05.434Z,80.29
2017-11-19T20:45:35.450Z,80.87
2017-11-19T20:48:04.532Z,79.72
2017-11-19T20:50:35.560Z,79.75
2017-11-19T20:53:06.642Z,80.13
2017-11-19T20:55:39.824Z,79.80
2017-11-19T20:58:08.973Z,79.62
2017-11-19T21:00:41.481Z,80.06
2017-11-19T21:03:10.612Z,80.08
2017-11-19T21:05:41.611Z,80.18
2017-11-19T21:08:10.653Z,80.12
2017-11-19T21:10:47.519Z,80.21
2017-11-19T21:13:16.676Z,80.99
2017-11-19T21:15:51.331Z,80.76
2017-11-19T21:18:20.402Z,80.95
2017-11-19T21:20:49.446Z,80.66
2017-11-19T21:23:18.522Z,80.70
2017-11-19T21:25:47.555Z,80.58
2017-11-19T21:28:18.928Z,80.23
2017-11-19T21:30:46.535Z,79.96
2017-11-19T21:33:15.653Z,80.45
2017-11-19T21:35:44.940Z,80.65
2017-11-19T21:38:14.026Z,79.17
2017-11-19T21:40:44.056Z,79.33
2017-11-19T21:43:13.135Z,80.08
2017-11-19T21:45:42.195Z,80.08
2017-11-19T21:48:11.231Z,79.80
2017-11-19T21:50:40.293Z,79.79
2017-11-19T21:53:09.311Z,79.22
2017-11-19T21:58:18.025Z,79.41
2017-11-19T22:00:48.011Z,79.50
2017-11-19T22:03:17.959Z,79.88
2017-11-19T22:05:46.986Z,79.46
2017-11-19T22:08:16.046Z,79.66
2017-11-19T22:10:45.116Z,79.66
2017-11-19T22:13:15.149Z,79.83
2017-11-19T22:15:44.238Z,79.97
2017-11-19T22:18:13.278Z,79.59
2017-11-19T22:20:42.342Z,79.57
2017-11-19T22:23:13.391Z,79.26
2017-11-19T22:25:42.456Z,79.29
2017-11-19T22:28:11.508Z,79.49
2017-11-19T22:30:40.511Z,79.06
2017-11-19T22:35:47.746Z,78.89
2017-11-19T22:40:55.995Z,78.42
2017-11-19T22:43:25.025Z,78.70
2017-11-19T22:45:54.081Z,79.38
2017-11-19T22:50:58.407Z,78.58
2017-11-19T22:53:28.364Z,79.11
2017-11-19T22:55:57.407Z,79.33
2017-11-19T22:58:28.338Z,78.92
2017-11-19T23:00:57.384Z,78.46
2017-11-19T23:03:31.624Z,78.46
2017-11-19T23:06:00.686Z,78.60
2017-11-19T23:08:37.769Z,79.68
2017-11-19T23:11:28.612Z,78.58
2017-11-19T23:13:57.652Z,79.55
2017-11-19T23:16:28.747Z,79.40
2017-11-19T23:18:57.782Z,79.76
2017-11-19T23:21:34.062Z,78.97
2017-11-19T23:24:08.739Z,79.81
2017-11-19T23:26:38.751Z,79.84
2017-11-19T23:29:07.807Z,79.37
2017-11-19T23:31:47.839Z,79.95
2017-11-19T23:34:16.931Z,79.55
2017-11-19T23:36:48.099Z,80.00
2017-11-19T23:39:17.168Z,80.25
2017-11-19T23:41:52.067Z,80.26
2017-11-19T23:44:21.099Z,80.01
2017-11-19T23:46:50.181Z,79.80
2017-11-19T23:49:19.216Z,80.20
2017-11-19T23:51:49.406Z,80.34
2017-11-19T23:54:18.411Z,79.98
2017-11-19T23:59:22.729Z,81.09
